Regionale Übersicht

METAR et TAF

Mardi 24 novembre 2020 à 18h35

Visibilités horizontales observées à différents aéroports. Les observations (METAR) et prévisions aéronautiques (TAF) complètes sont disponibles en cliquant sur l’icône correspondante.

  • Luxemburg (ELLX)

    Taf: TAF ELLX 241700Z 2418/2524 15006KT 0300 FG VV001 TEMPO 2418/2518 0800 OVC002 PROB40 TEMPO 2513/2516 2500 BR BKN003=

    Metar: METAR ELLX 241720Z 15006KT 120V190 0100 R24/0600N FG VV002 03/03 Q1021 NOSIG=

  • Spangdahlem (ETAD)

    Taf: TAF ETAD 241258Z 2413/2519 VRB05KT 0400 FG OVC002 QNH3020INS BECMG 2417/2418 16007KT 0200 FG VV001 QNH3015INS BECMG 2510/2511 16007KT 3200 BR BKN005 QNH3006INS TX07/2514Z TN01/2504Z=

    Metar: METAR ETAD 241656Z AUTO 00000KT 1000 R23/1100 BR VV001 04/04 A3016 RMK AO2 SLP217 T00360036 $=

  • Metz/Nancy (LFJL)

    Taf: TAF LFJL 241700Z NIL=

    Metar: METAR LFJL 241700Z AUTO 12006KT 5000 BR OVC003 04/04 Q1021 BECMG 1200 BR=

  • Saarbrücken/Intl (EDDR)

    Taf: TAF EDDR 241700Z 2418/2518 09005KT 6000 BKN006 BECMG 2418/2420 3000 BR OVC004 BECMG 2420/2422 0500 FG OVC001 BECMG 2508/2510 16004KT 4000 BR OVC004 TEMPO 2514/2518 6000 BKN012=

    Metar: METAR EDDR 241720Z 11004KT 080V140 9000 BKN006 04/04 Q1022 NOSIG=

  • Hahn (EDFH)

    Taf: TAF EDFH 241700Z 2418/2518 14012KT 0200 FG OVC001 PROB30 TEMPO 2512/2518 8000 SCT003=

    Metar: METAR EDFH 241720Z 15010KT 0600 R21/1000U FG VV/// 03/03 Q1021=

  • Ramstein (ETAR)

    Taf: TAF AMD ETAR 241636Z 2416/2516 12006KT 9999 BKN010 QNH3018INS BECMG 2417/2418 VRB06KT 6000 BR SCT002 BKN008 QNH3014INS BECMG 2421/2422 16006KT 0400 FG VV001 QNH3008INS BECMG 2505/2506 18006KT 3200 BR FEW002 QNH3008INS BECMG 2507/2508 20009KT 9999 NSW SCT002 BKN015 QNH3008INS TX07/2513Z TN01/2503Z=

    Metar: METAR ETAR 241656Z 00000KT 9999 OVC011 06/06 A3019 RMK AO2A SLP236 T00550055 FZRANO $=

  • Nancy/Ochey (LFSO)

    Taf: TAF AMD LFSO 241530Z 2415/2515 CNL=

    Metar: METAR LFSO 241700Z AUTO 10005KT 0550 0400 R20/0500N FG VV/// 02/02 Q1021=

  • Liège Bierset (EBLG)

    Taf: TAF EBLG 241710Z 2418/2524 17009KT CAVOK PROB30 TEMPO 2510/2519 BKN009=

    Metar: METAR EBLG 241720Z 17009KT CAVOK 07/04 Q1019 NOSIG=

  • Saint-Dizier (LFSI)

    Taf: TAF LFSI 241400Z 2415/2515 12008KT CAVOK PROB30 TEMPO 2501/2507 4500 BR=

    Metar: METAR LFSI 241700Z AUTO 10004KT CAVOK 06/03 Q1020=

  • Maastricht/Zuid Limburg (EHBK)

    Taf: TAF EHBK 241649Z 2418/2524 18006KT CAVOK BECMG 2507/2510 21010KT=

    Metar: METAR EHBK 241725Z AUTO 17007KT 9999 NSC 07/04 Q1019 NOSIG=

  • Köln/Köln-Bonn (EDDK)

    Taf: TAF EDDK 241700Z 2418/2524 13008KT 9999 SCT010 TEMPO 2418/2421 BKN012 TEMPO 2421/2511 BKN008=

    Metar: METAR EDDK 241720Z 13008KT 9999 BKN011 06/04 Q1022 NOSIG=

  • Charleroi (EBCI)

    Taf: TAF EBCI 241710Z 2418/2524 17008KT CAVOK PROB40 TEMPO 2509/2518 BKN007=

    Metar: METAR EBCI 241720Z 16008KT CAVOK 06/04 Q1019 NOSIG=

  • Wiesbaden (ETOU)

    Taf: TAF ETOU 241309Z 2413/2519 VRB06KT 2800 BR OVC007 QNH3025INS TEMPO 2417/2423 0800 FG OVC002 BECMG 2501/2502 VRB06KT 0800 FG OVC002 QNH3010INS BECMG 2512/2513 18006KT 2000 BR OVC007 QNH3012INS TX06/2413Z TN03/2503Z=

    Metar: METAR ETOU 241656Z 11004KT 5000 BR OVC011 06/05 A3022 RMK AO2A SLP241 T00550046 $=

  • Karlsruhe/Baden-Baden (EDSB)

    Taf: TAF EDSB 241700Z 2418/2518 VRB03KT 1200 BR OVC003 BECMG 2418/2421 0500 FG OVC001 BECMG 2510/2512 1200 BR OVC003 TEMPO 2514/2518 4000 BR=

    Metar: METAR EDSB 241720Z 20003KT 1500 BR BKN002 OVC005 04/04 Q1023=

  • Chalons/Vatry (LFOK)

    Taf: TAF LFOK 241700Z NIL=

    Metar: METAR LFOK 241700Z AUTO 10008KT 6000 NSC 05/04 Q1019 NOSIG=

  • Frankfurt/Main (EDDF)

    Taf: TAF EDDF 241700Z 2418/2524 07004KT 9999 OVC012 BECMG 2420/2422 4000 BR OVC008 TEMPO 2422/2508 2000 BR OVC004 PROB40 TEMPO 2422/2507 0500 FG OVC001 BECMG 2508/2511 19005KT 8000 BECMG 2511/2513 OVC012 BECMG 2520/2522 4000 BR OVC008 TEMPO 2522/2524 0500 FG OVC001=

    Metar: METAR EDDF 241720Z 06004KT 040V100 9999 OVC011 06/04 Q1023 BECMG OVC008=

  • Brüssel (EBBR)

    Taf: TAF EBBR 241710Z 2418/2524 18008KT CAVOK PROB30 TEMPO 2511/2516 BKN014=

    Metar: METAR EBBR 241720Z 16005KT CAVOK 07/04 Q1019 NOSIG=

  • Düsseldorf (EDDL)

    Taf: TAF EDDL 241700Z 2418/2524 16014KT CAVOK PROB30 TEMPO 2500/2510 BKN008 BECMG 2512/2515 16009KT=

    Metar: METAR EDDL 241720Z 16013KT CAVOK 06/04 Q1020 NOSIG=

  • Luxeuil (LFSX)

    Taf: TAF LFSX 241400Z 2415/2515 11005KT CAVOK PROB30 TEMPO 2421/2509 2500 BR SCT002=

    Metar: METAR LFSX 241700Z AUTO 11003KT 6000 NSC 03/02 Q1021=

  • Eindhoven (EHEH)

    Taf: TAF EHEH 241112Z 2412/2518 21008KT CAVOK=

    Metar: METAR EHEH 241725Z AUTO 16006KT 9999 OVC210 08/05 Q1019 BLU NOSIG=

  • Niederrhein (EDLV)

    Taf: TAF EDLV 241700Z NIL=

    Metar: METAR EDLV 241720Z NIL=

  • Dortmund/Wickede (EDLW)

    Taf: TAF EDLW 241700Z 2418/2518 18009KT CAVOK=

    Metar: METAR EDLW 241720Z 16011KT CAVOK 06/03 Q1020=

  • Stuttgart/Echterdingen (EDDS)

    Taf: TAF EDDS 241700Z 2418/2518 VRB03KT CAVOK BECMG 2420/2423 3000 BR TEMPO 2423/2508 0800 FG OVC001 PROB40 TEMPO 2423/2506 0200 FZFG BECMG 2508/2511 8000=

    Metar: METAR EDDS 241720Z 10002KT CAVOK 02/01 Q1022 NOSIG=

  • Basel-Mühlhausen (LFSB)

    Taf: TAF LFSB 241700Z 2418/2518 12006KT CAVOK TEMPO 2422/2508 3000 MIFG PROB30 TEMPO 2502/2507 0300 FZFG VV///=

    Metar: METAR LFSB 241700Z 13003KT CAVOK 04/01 Q1022 NOSIG=

  • Lille (LFQQ)

    Taf: TAF LFQQ 241700Z NIL=

    Metar: METAR LFQQ 241700Z AUTO 15010KT CAVOK 07/05 Q1018 NOSIG=

  • Paris/Charles de Gaulle (LFPG)

    Taf: TAF LFPG 241700Z 2418/2524 14008KT CAVOK TX11/2514Z TN05/2503Z PROB40 TEMPO 2504/2506 BKN011 PROB30 2521/2524 4000 BR=

    Metar: METAR LFPG 241700Z 14009KT CAVOK 08/03 Q1018 NOSIG=

  • Paderborn/Lippstadt (EDLP)

    Taf: TAF EDLP 241700Z 2418/2518 15008KT CAVOK=

    Metar: METAR EDLP 241720Z 08006KT CAVOK 02/M00 Q1021=

  • Paris/Le Bourget (LFPB)

    Taf: TAF LFPB 241700Z 2418/2518 14008KT CAVOK PROB40 TEMPO 2504/2506 BKN013=

    Metar: METAR LFPB 241700Z AUTO 12006KT CAVOK 08/03 Q1018 NOSIG=

  • Rotterdam (EHRD)

    Taf: TAF EHRD 241715Z 2418/2524 17010KT CAVOK BECMG 2508/2511 20010KT FEW018 TEMPO 2512/2524 BKN014=

    Metar: METAR EHRD 241725Z AUTO 17010KT 9999 NSC 09/06 Q1018 NOSIG=

  • Zürich/Kloten (LSZH)

    Taf: TAF LSZH 241725Z 2418/2524 VRB03KT 7000 OVC011 TX04/2514Z TNM00/2505Z BECMG 2418/2421 OVC009 PROB40 2420/2508 4500 BR BECMG 2508/2511 BKN011 PROB40 2512/2516 9000 SCT013 BECMG 2518/2521 OVC009 PROB40 2520/2524 4500 BR=

    Metar: METAR LSZH 241720Z VRB03KT 7000 OVC011 03/01 Q1023 NOSIG=

  • Oostende/Intl (EBOS)

    Taf: TAF EBOS 241710Z 2418/2524 18012KT CAVOK=

    Metar: METAR EBOS 241720Z 15006KT CAVOK 07/05 Q1017 NOSIG=

  • Paris/Orly (LFPO)

    Taf: TAF LFPO 241700Z 2418/2524 12005KT CAVOK PROB40 TEMPO 2505/2511 BKN014 BECMG 2521/2524 4000 BR=

    Metar: METAR LFPO 241700Z 12004KT CAVOK 07/04 Q1018 NOSIG=

  • Beauvais (LFOB)

    Taf: TAF LFOB 241700Z NIL=

    Metar: METAR LFOB 241700Z AUTO 12004KT CAVOK 05/03 Q1018 NOSIG=

  • Münster/Intl (EDDG)

    Taf: TAF EDDG 241700Z 2418/2518 12004KT CAVOK BECMG 2508/2511 18005KT=

    Metar: METAR EDDG 241720Z 14004KT 100V160 CAVOK 06/05 Q1020 NOSIG=

  • Illesheim (ETIK)

    Taf: TAF ETIK 241500Z 2415/2521 VRB06KT 6000 BR OVC008 QNH3027INS BECMG 2502/2503 VRB06KT 0800 FZFG BKN008 QNH3012INS TEMPO 2503/2508 BKN005 BECMG 2508/2509 16006KT 8000 BR BKN012 QNH3013INS BECMG 2512/2513 VRB06KT 9999 NSW SCT015 QNH3015INS TX06/2515Z TNM02/2505Z=

    Metar: METAR ETIK 241700Z NIL=

  • Duebendorf (LSMD)

    Taf: TAF LSMD 241625Z 2417/2523 VRB03KT 9999 OVC011 BECMG 2417/2419 4500 BR BECMG 2419/2421 2500 BR OVC009 BECMG 2508/2511 6000 BKN011 PROB40 2512/2516 9000 SCT013 BECMG 2517/2519 4500 BR BECMG 2519/2521 2500 BR OVC009=

    Metar: METAR LSMD 241720Z AUTO 00000KT 9000NDV OVC009 03/01 Q1023 RMK=

  • Villacoublay (LFPV)

    Taf: TAF AMD LFPV 241402Z 2414/2509 16006KT CAVOK TX09/2414Z TN03/2503Z PROB40 TEMPO 2503/2509 4000 BR BKN008=

    Metar: METAR LFPV 241700Z AUTO 13009KT CAVOK 07/05 Q1017 NOSIG=

  • Payerne (LSMP)

    Taf: TAF LSMP 241625Z 2417/2523 VRB03KT 4000 BR OVC008 PROB40 TEMPO 2503/2508 0800 FZFG VV003=

    Metar: METAR LSMP 241720Z AUTO VRB02KT 5000NDV BKN008 04/02 Q1023 RMK=

  • Amsterdam/Schipol (EHAM)

    Taf: TAF EHAM 241715Z 2418/2524 17010KT CAVOK BECMG 2508/2511 20010KT FEW018 TEMPO 2513/2524 BKN014=

    Metar: METAR EHAM 241725Z 15008KT CAVOK 08/06 Q1018 NOSIG=

  • Emmen (LSME)

    Taf: TAF LSME 241625Z 2417/2523 VRB03KT 3500 BR OVC007 BECMG 2417/2419 2000 PROB30 2421/2507 0500 FZFG VV002 BECMG 2510/2513 4500 BR BECMG 2512/2515 6000 SCT010 BECMG 2517/2519 4000 BR BECMG 2519/2521 0800 PRFG BKN002=

    Metar: METAR LSME 241720Z AUTO VRB02KT 5000NDV BR OVC006 03/01 Q1023 RMK=

  • Friedrichshafen (EDNY)

    Taf: TAF EDNY 241700Z 2418/2518 VRB02KT 4000 BR FEW006 BECMG 2418/2420 BKN003 TEMPO 2420/2508 0300 FZFG VV001 BECMG 2508/2511 6000 BKN012 TEMPO 2512/2516 SCT012 BECMG 2516/2518 3000 BR BKN006=

    Metar: METAR EDNY 241720Z AUTO VRB01KT 3800 // FEW010/// M01/M01 Q1023=

  • Alpnach (LSMA)

    Taf: TAF LSMA 241625Z 2417/2523 VRB03KT 7000 NSC PROB40 2417/2508 4500 BR BECMG 2509/2512 BKN008 BECMG 2512/2515 9999 SCT010=

    Metar: METAR LSMA 241720Z AUTO 20003KT 4000NDV FEW009 00/M01 Q1023 RMK=

  • Meiringen (LSMM)

    Taf: TAF LSMM 241625Z 2417/2523 VRB02KT CAVOK PROB30 2503/2508 0400 FZFG VV002=

    Metar: METAR LSMM 241720Z AUTO 10004KT 9999NDV NCD M03/M04 Q1023 RMK=

  • Nürnberg (EDDN)

    Taf: TAF EDDN 241700Z 2418/2518 13006KT 9000 BKN007 BECMG 2422/2501 4000 BR BKN004 BECMG 2508/2510 6000 BKN007=

    Metar: METAR EDDN 241720Z 11008KT 9999 BKN006 03/02 Q1024 NOSIG=

  • Rouen (LFOP)

    Taf: TAF LFOP 241700Z NIL=

    Metar: METAR LFOP 241700Z AUTO 12008KT CAVOK 06/05 Q1016 NOSIG=

  • Evreux (LFOE)

    Taf: TAF LFOE 241400Z 2415/2515 15008KT CAVOK TEMPO 2500/2503 3000 BR BECMG 2504/2506 OVC008 BECMG 2506/2508 BKN004 BECMG 2510/2512 SCT008 BKN014 BECMG 2512/2514 BKN035=

    Metar: METAR LFOE 241700Z AUTO 13006KT CAVOK 08/05 Q1017 NOSIG=

  • Erfurt/Bindersleben (EDDE)

    Taf: TAF EDDE 241700Z NIL=

    Metar: METAR EDDE 241720Z 21004KT CAVOK 01/M00 Q1023 NOSIG=